Time;durP1;ratioP1;P1;durP2;ratioP2;P2;SDS_P1;SDS_P2;PMS_P1;PMS_P2;Temp;Humidity;BMP_temperature;BMP_pressure;BME280_temperature;BME280_humidity;BME280_pressure;Samples;Min_cycle;Max_cycle;Signal;HPM_P1;HPM_P2
2022/08/18 00:05:43;;;;;;;8.57;4.90;;;;;;;20.54;100.00;99972.81;20816558;28;20052;-69
2022/08/18 00:15:44;;;;;;;6.53;4.97;;;;;;;20.27;100.00;99971.91;20817477;28;20061;-69
2022/08/18 00:25:51;;;;;;;8.23;5.28;;;;;;;19.95;100.00;99975.59;20817225;28;20057;-70
2022/08/18 00:35:53;;;;;;;10.50;5.83;;;;;;;19.78;100.00;99967.78;20815760;28;20413;-69
2022/08/18 00:45:54;;;;;;;7.63;5.40;;;;;;;19.70;100.00;99976.22;20816080;28;20101;-69
2022/08/18 00:55:55;;;;;;;8.65;5.65;;;;;;;19.65;100.00;99996.03;20815645;28;20053;-70
2022/08/18 01:05:57;;;;;;;9.63;5.95;;;;;;;19.56;100.00;99989.44;20815553;28;20107;-69
2022/08/18 01:15:58;;;;;;;9.70;5.88;;;;;;;19.56;100.00;99997.41;20829490;28;20053;-70
2022/08/18 01:25:59;;;;;;;9.30;6.03;;;;;;;19.52;100.00;99995.88;20829494;28;20060;-70
2022/08/18 01:36:02;;;;;;;8.75;6.32;;;;;;;19.41;100.00;100009.78;20827625;28;20053;-73
2022/08/18 01:46:03;;;;;;;10.15;6.25;;;;;;;19.37;100.00;99991.47;20827845;28;20053;-71
2022/08/18 01:56:04;;;;;;;10.02;6.70;;;;;;;19.33;100.00;100003.22;20826725;28;20061;-72
2022/08/18 02:06:06;;;;;;;10.77;6.38;;;;;;;19.27;100.00;99998.28;20826240;28;20457;-72
2022/08/18 02:16:08;;;;;;;8.88;6.65;;;;;;;19.18;100.00;99992.53;20825736;28;20069;-73
2022/08/18 02:26:09;;;;;;;9.60;6.93;;;;;;;19.15;100.00;99974.13;20824499;28;20049;-73
2022/08/18 02:36:11;;;;;;;11.65;6.80;;;;;;;19.12;100.00;99974.31;20824853;28;20049;-71
2022/08/18 02:46:12;;;;;;;8.93;6.78;;;;;;;18.96;100.00;99953.09;20823462;28;20410;-71
2022/08/18 02:56:23;;;;;;;10.32;7.15;;;;;;;18.90;100.00;99948.16;20822189;28;20056;-71
2022/08/18 03:06:42;;;;;;;9.65;6.85;;;;;;;19.01;100.00;99960.81;20820684;28;20060;-72
2022/08/18 03:16:45;;;;;;;9.77;6.65;;;;;;;18.87;100.00;99942.16;20819859;28;20050;-71
2022/08/18 03:26:58;;;;;;;9.95;7.65;;;;;;;18.82;100.00;99949.53;20819656;28;20115;-70
2022/08/18 03:36:59;;;;;;;9.48;6.82;;;;;;;18.86;100.00;99948.41;20803489;28;20061;-70
2022/08/18 03:47:03;;;;;;;9.38;7.15;;;;;;;18.86;100.00;99935.16;20737495;28;20069;-69
2022/08/18 03:57:05;;;;;;;9.55;6.85;;;;;;;18.69;100.00;99942.28;20736441;28;20056;-69
2022/08/18 04:07:06;;;;;;;10.13;7.28;;;;;;;18.63;100.00;99931.97;20736149;28;20049;-70
2022/08/18 04:17:07;;;;;;;10.07;7.10;;;;;;;18.60;100.00;99923.38;20746685;28;20050;-70
2022/08/18 04:27:09;;;;;;;9.63;7.10;;;;;;;18.71;100.00;99945.69;20735400;28;20056;-69
2022/08/18 04:37:10;;;;;;;10.38;6.72;;;;;;;18.61;100.00;99941.81;20735448;28;20522;-69
2022/08/18 04:47:12;;;;;;;9.57;6.90;;;;;;;18.64;100.00;99962.03;20747689;28;20064;-69
2022/08/18 04:57:13;;;;;;;10.35;6.97;;;;;;;18.61;100.00;99968.34;20750633;28;20506;-69
2022/08/18 05:07:15;;;;;;;10.65;7.45;;;;;;;18.59;100.00;99995.88;20749502;28;20502;-69
2022/08/18 05:17:16;;;;;;;9.25;7.18;;;;;;;18.57;100.00;100001.28;20749346;28;20058;-68
2022/08/18 05:27:17;;;;;;;11.77;7.15;;;;;;;18.61;100.00;100001.97;20748473;28;20053;-68
2022/08/18 05:37:19;;;;;;;10.07;7.45;;;;;;;18.64;100.00;99991.19;20746636;28;20096;-68
2022/08/18 05:47:20;;;;;;;10.45;7.65;;;;;;;18.67;100.00;99970.66;20746856;28;20050;-68
2022/08/18 05:57:21;;;;;;;13.40;9.00;;;;;;;18.78;100.00;99969.22;20744787;28;20461;-68
2022/08/18 06:07:23;;;;;;;14.73;9.27;;;;;;;19.05;100.00;99957.03;20743791;28;20502;-69
2022/08/18 06:17:25;;;;;;;14.98;9.48;;;;;;;19.06;100.00;99968.50;20744750;28;20057;-69
2022/08/18 06:27:29;;;;;;;12.18;8.95;;;;;;;19.29;100.00;99972.47;20743095;28;20050;-71
2022/08/18 06:37:30;;;;;;;11.97;8.87;;;;;;;19.36;100.00;99979.16;20741571;28;20074;-69
2022/08/18 06:47:32;;;;;;;11.13;8.40;;;;;;;19.51;100.00;99986.22;20741266;28;20073;-69
2022/08/18 06:57:33;;;;;;;10.45;8.48;;;;;;;19.98;100.00;99986.03;20740084;28;20049;-69
2022/08/18 07:07:35;;;;;;;14.32;8.20;;;;;;;20.15;100.00;99987.66;20738393;28;20451;-69
2022/08/18 07:17:51;;;;;;;12.65;7.90;;;;;;;20.24;100.00;99997.72;20739246;28;20054;-69
2022/08/18 07:27:55;;;;;;;12.50;8.35;;;;;;;20.24;100.00;100018.97;20851797;28;20114;-69
2022/08/18 07:37:57;;;;;;;11.07;7.07;;;;;;;20.29;100.00;100049.75;20855843;28;20471;-69
2022/08/18 07:47:58;;;;;;;10.85;8.45;;;;;;;20.27;100.00;100049.00;20837936;28;20042;-69
2022/08/18 07:58:15;;;;;;;11.55;8.70;;;;;;;20.06;100.00;100032.53;20822205;28;20425;-69
2022/08/18 08:08:17;;;;;;;11.90;8.77;;;;;;;20.12;100.00;100025.06;20821052;28;20422;-69
2022/08/18 08:18:25;;;;;;;13.38;8.85;;;;;;;20.06;100.00;100040.50;20838479;28;20156;-69
2022/08/18 08:28:26;;;;;;;12.82;9.27;;;;;;;19.91;100.00;100047.59;20817036;28;20152;-68
2022/08/18 08:38:28;;;;;;;11.40;9.20;;;;;;;19.85;100.00;100053.31;20811919;28;20053;-69
2022/08/18 08:48:44;;;;;;;13.63;10.20;;;;;;;20.15;100.00;100051.44;20814591;28;20081;-68
2022/08/18 08:58:45;;;;;;;12.45;10.05;;;;;;;20.41;100.00;100046.31;20815201;28;20108;-69
2022/08/18 09:08:47;;;;;;;12.98;10.07;;;;;;;20.36;100.00;100069.69;20814223;28;20081;-69
2022/08/18 09:18:48;;;;;;;13.88;10.52;;;;;;;20.57;100.00;100043.59;20812527;28;20099;-69
2022/08/18 09:28:49;;;;;;;17.88;12.63;;;;;;;20.51;100.00;100012.94;20818407;28;20050;-69
2022/08/18 09:49:28;;;;;;;19.00;15.77;;;;;;;20.75;100.00;100024.69;20706570;28;20085;-68
2022/08/18 09:59:30;;;;;;;23.33;18.20;;;;;;;20.65;100.00;100028.00;20919275;23;20421;-72
2022/08/18 10:09:34;;;;;;;20.55;17.35;;;;;;;20.97;100.00;100033.94;20825047;28;20455;-73
2022/08/18 10:19:37;;;;;;;23.52;17.85;;;;;;;21.11;100.00;100047.19;20825255;28;20549;-71
2022/08/18 10:29:39;;;;;;;26.15;19.95;;;;;;;21.15;100.00;100043.38;20825538;28;20056;-70
2022/08/18 10:39:41;;;;;;;26.25;21.42;;;;;;;21.26;100.00;100003.59;20823776;28;20407;-70
2022/08/18 10:49:42;;;;;;;27.30;22.48;;;;;;;21.69;100.00;99992.72;20823356;28;20049;-70
2022/08/18 10:59:47;;;;;;;;;;;;;;;21.74;100.00;99993.28;20821242;28;20389;-70
2022/08/18 11:09:55;;;;;;;28.08;23.20;;;;;;;21.83;100.00;99970.47;20821039;28;19928;-71
2022/08/18 11:20:16;;;;;;;25.80;20.88;;;;;;;22.18;100.00;99978.72;20822232;28;20049;-72
2022/08/18 11:30:18;;;;;;;25.95;18.38;;;;;;;22.63;100.00;99965.72;20820664;28;20053;-72
2022/08/18 11:40:25;;;;;;;21.05;18.52;;;;;;;22.88;100.00;99953.22;20819766;28;20052;-72
2022/08/18 11:50:46;;;;;;;18.05;15.27;;;;;;;22.66;100.00;99949.47;20818631;28;20053;-72
2022/08/18 12:00:55;;;;;;;21.17;15.90;;;;;;;22.71;100.00;99931.31;20817499;28;20045;-70
2022/08/18 12:11:01;;;;;;;21.23;16.88;;;;;;;23.40;98.98;99938.66;20816811;28;20084;-71
2022/08/18 12:21:23;;;;;;;23.80;18.98;;;;;;;23.33;100.00;99905.34;20820626;28;20119;-71
2022/08/18 12:31:24;;;;;;;21.55;18.15;;;;;;;23.80;95.95;99899.88;20818063;28;20107;-70
2022/08/18 12:41:45;;;;;;;21.92;17.30;;;;;;;24.16;93.73;99889.06;20817231;28;20053;-71
2022/08/18 12:51:47;;;;;;;23.00;18.60;;;;;;;24.42;84.92;99885.16;20816708;28;20056;-70
2022/08/18 13:01:50;;;;;;;20.67;17.08;;;;;;;24.56;82.22;99873.31;20817852;28;20449;-70
2022/08/18 13:11:58;;;;;;;22.13;19.38;;;;;;;25.05;78.06;99847.78;20830499;28;20049;-70
2022/08/18 13:22:00;;;;;;;17.55;14.55;;;;;;;24.57;78.84;99853.59;20826388;28;20053;-69
2022/08/18 13:32:07;;;;;;;14.60;12.33;;;;;;;24.91;73.61;99834.72;20829480;28;20053;-71
2022/08/18 13:42:09;;;;;;;12.77;10.65;;;;;;;24.90;70.14;99824.97;20826294;28;20554;-68
2022/08/18 13:52:29;;;;;;;12.43;9.68;;;;;;;25.29;71.11;99800.16;20828570;28;20054;-70
2022/08/18 14:02:46;;;;;;;11.70;8.70;;;;;;;25.52;68.04;99810.72;20870485;28;20049;-71
2022/08/18 14:12:48;;;;;;;10.50;8.83;;;;;;;25.28;68.06;99798.47;20908820;28;20049;-74
2022/08/18 14:33:10;;;;;;;13.13;8.27;;;;;;;25.41;66.02;99802.78;20907183;28;20060;-73
2022/08/18 14:43:12;;;;;;;11.05;9.10;;;;;;;25.61;63.94;99809.06;20906343;28;20143;-73
2022/08/18 14:53:14;;;;;;;10.48;8.07;;;;;;;25.57;66.95;99803.13;20905996;28;20143;-73
2022/08/18 15:03:16;;;;;;;11.73;8.43;;;;;;;25.39;68.12;99816.28;20904236;28;20059;-73
2022/08/18 15:13:20;;;;;;;;;;;;;;;25.39;65.78;99821.66;20865119;28;20139;-73
2022/08/18 15:33:46;;;;;;;12.73;10.63;;;;;;;25.32;64.52;99829.38;20818168;28;20060;-73
2022/08/18 15:43:52;;;;;;;11.20;10.07;;;;;;;25.44;63.11;99829.31;20818677;28;20052;-73
2022/08/18 15:53:53;;;;;;;12.73;10.95;;;;;;;25.12;63.75;99830.25;20825208;28;20057;-73
2022/08/18 16:03:56;;;;;;;11.80;10.13;;;;;;;25.08;61.43;99836.84;20855790;23;20501;-74
2022/08/18 16:13:58;;;;;;;12.18;9.80;;;;;;;25.20;59.31;99842.97;20845251;28;20136;-71
2022/08/18 16:23:59;;;;;;;13.10;9.43;;;;;;;25.10;58.77;99829.53;20832574;28;20061;-67
2022/08/18 16:34:00;;;;;;;12.40;9.25;;;;;;;25.13;58.19;99829.28;20727456;28;20415;-68
2022/08/18 16:44:02;;;;;;;11.63;10.02;;;;;;;24.87;59.12;99826.09;20878713;28;20059;-69
2022/08/18 16:54:04;;;;;;;13.32;9.35;;;;;;;24.93;61.53;99819.38;20824389;28;20426;-68
2022/08/18 17:04:05;;;;;;;13.30;10.25;;;;;;;24.81;62.33;99807.84;20821816;28;20164;-68
2022/08/18 17:14:14;;;;;;;13.73;10.52;;;;;;;24.64;63.60;99787.88;20860434;28;20091;-68
2022/08/18 17:24:21;;;;;;;12.15;9.77;;;;;;;24.53;64.60;99793.28;20880521;28;20599;-68
2022/08/18 17:34:32;;;;;;;12.20;10.25;;;;;;;24.17;65.90;99795.31;20829375;28;20143;-68
2022/08/18 17:44:36;;;;;;;12.20;10.90;;;;;;;23.99;67.97;99799.47;20887575;28;20084;-68
2022/08/18 17:54:48;;;;;;;16.98;10.82;;;;;;;23.97;69.70;99799.59;20884466;28;20060;-68
2022/08/18 18:04:51;;;;;;;13.00;10.70;;;;;;;23.90;71.61;99800.22;20883857;28;20052;-68
2022/08/18 18:14:52;;;;;;;14.43;10.57;;;;;;;23.68;74.46;99799.28;20849167;28;20052;-68
2022/08/18 18:24:53;;;;;;;13.27;11.27;;;;;;;23.47;78.61;99800.94;20859549;28;20053;-68
2022/08/18 18:34:55;;;;;;;13.75;11.43;;;;;;;23.28;80.87;99820.22;20801498;28;20053;-68
2022/08/18 18:44:57;;;;;;;11.50;10.27;;;;;;;23.06;84.63;99813.03;20801752;28;20050;-68
2022/08/18 18:54:58;;;;;;;12.18;10.75;;;;;;;22.82;88.83;99825.56;20800845;28;20506;-68
2022/08/18 19:05:00;;;;;;;13.00;11.07;;;;;;;22.54;92.84;99832.97;20800941;28;20056;-68
2022/08/18 19:15:02;;;;;;;11.52;10.32;;;;;;;22.34;96.02;99852.25;20803120;28;20057;-68
2022/08/18 19:25:03;;;;;;;16.67;12.63;;;;;;;22.13;97.41;99874.16;20800803;28;20057;-68
2022/08/18 19:35:04;;;;;;;17.17;12.90;;;;;;;22.24;91.73;99858.25;20799286;28;20053;-68
2022/08/18 19:45:13;;;;;;;18.25;13.95;;;;;;;22.24;87.22;99863.59;20798897;28;20064;-68
2022/08/18 19:55:17;;;;;;;;;;;;;;;22.13;86.74;99855.50;20798569;28;20056;-68
2022/08/18 20:05:19;;;;;;;17.55;14.35;;;;;;;22.07;82.61;99860.41;20798019;28;19921;-68
2022/08/18 20:15:21;;;;;;;17.98;14.15;;;;;;;21.95;83.38;99864.81;20854744;28;20075;-68
2022/08/18 20:25:22;;;;;;;19.02;13.43;;;;;;;21.89;84.35;99870.56;20890842;28;20061;-68
2022/08/18 20:35:24;;;;;;;19.75;14.68;;;;;;;21.76;85.61;99884.78;20874883;28;20079;-69
2022/08/18 20:45:25;;;;;;;20.33;14.23;;;;;;;21.67;87.63;99901.41;20890371;28;20049;-68
2022/08/18 20:55:27;;;;;;;20.02;14.52;;;;;;;21.48;88.82;99906.31;20890170;28;20045;-68
2022/08/18 21:05:30;;;;;;;;;;;;;;;21.32;90.97;99894.97;20889902;28;20064;-69
2022/08/18 21:15:34;;;;;;;21.83;15.90;;;;;;;21.09;93.87;99889.38;20889445;28;20488;-68
2022/08/18 21:25:35;;;;;;;21.93;16.13;;;;;;;21.11;92.25;99886.63;20896314;28;20080;-68
2022/08/18 21:35:37;;;;;;;23.20;17.08;;;;;;;21.10;92.11;99904.41;20903180;28;20064;-68
2022/08/18 21:45:38;;;;;;;20.83;15.32;;;;;;;20.97;93.67;99914.16;20903469;28;20053;-67
2022/08/18 21:55:39;;;;;;;20.02;14.82;;;;;;;20.88;96.49;99928.06;20903652;28;20489;-67
2022/08/18 22:05:41;;;;;;;20.85;15.98;;;;;;;20.72;100.00;99923.75;20906709;23;20050;-74
2022/08/18 22:16:00;;;;;;;23.45;16.77;;;;;;;20.61;100.00;99923.63;20744456;28;20469;-74
2022/08/18 22:26:01;;;;;;;21.23;16.08;;;;;;;20.48;100.00;99914.72;20725884;28;20052;-73
2022/08/18 22:36:03;;;;;;;22.90;16.23;;;;;;;20.48;100.00;99928.00;20667036;28;20503;-73
2022/08/18 22:46:04;;;;;;;20.13;16.30;;;;;;;20.34;100.00;99943.97;20662567;28;20050;-75
2022/08/18 22:56:05;;;;;;;24.08;17.55;;;;;;;20.28;100.00;99944.34;20660938;28;20442;-75
2022/08/18 23:06:10;;;;;;;20.92;16.10;;;;;;;20.17;100.00;99948.53;20659279;28;20058;-74
2022/08/18 23:16:11;;;;;;;23.52;17.20;;;;;;;20.25;100.00;99954.22;20659892;28;20085;-74
2022/08/18 23:26:32;;;;;;;22.70;16.27;;;;;;;20.21;100.00;99955.34;20658578;28;20061;-74
2022/08/18 23:36:37;;;;;;;21.25;16.38;;;;;;;20.36;100.00;99955.34;20658064;28;20050;-74
2022/08/18 23:46:43;;;;;;;23.60;16.95;;;;;;;20.34;100.00;99949.28;20656601;28;20105;-74
2022/08/18 23:56:45;;;;;;;23.15;17.02;;;;;;;20.29;100.00;99946.91;20657226;28;20057;-73
